createdAt,value
2023-02-14T00:01:39.811Z,4.87
2023-02-14T00:04:07.839Z,5.13
2023-02-14T00:06:38.838Z,5.43
2023-02-14T00:09:07.564Z,4.87
2023-02-14T00:11:35.846Z,5.30
2023-02-14T00:14:35.977Z,5.27
2023-02-14T00:17:04.132Z,4.17
2023-02-14T00:19:34.682Z,4.70
2023-02-14T00:22:04.437Z,4.10
2023-02-14T00:24:33.154Z,4.60
2023-02-14T00:27:01.416Z,4.53
2023-02-14T00:29:31.323Z,4.63
2023-02-14T00:31:59.618Z,4.73
2023-02-14T00:34:28.356Z,4.20
2023-02-14T00:36:56.287Z,4.77
2023-02-14T00:39:26.788Z,4.70
2023-02-14T00:41:54.765Z,5.00
2023-02-14T00:44:22.950Z,4.30
2023-02-14T00:46:50.857Z,4.30
2023-02-14T00:49:18.959Z,4.90
2023-02-14T00:51:46.827Z,4.47
2023-02-14T00:54:14.822Z,4.60
2023-02-14T00:56:44.086Z,4.50
2023-02-14T00:59:12.098Z,4.47
2023-02-14T01:01:40.306Z,4.93
2023-02-14T01:04:09.109Z,4.13
2023-02-14T01:06:37.109Z,4.17
2023-02-14T01:09:05.905Z,3.80
2023-02-14T01:11:34.676Z,4.33
2023-02-14T01:14:04.267Z,3.87
2023-02-14T01:16:32.484Z,4.83
2023-02-14T01:19:01.572Z,4.73
2023-02-14T01:21:31.116Z,5.17
2023-02-14T01:24:00.929Z,4.63
2023-02-14T01:26:29.660Z,4.13
2023-02-14T01:28:57.927Z,4.17
2023-02-14T01:31:29.443Z,4.27
2023-02-14T01:33:59.138Z,5.20
2023-02-14T01:36:32.716Z,4.73
2023-02-14T01:39:02.750Z,4.30
2023-02-14T01:41:33.631Z,4.47
2023-02-14T01:44:04.154Z,4.60
2023-02-14T01:46:35.512Z,5.30
2023-02-14T01:49:09.245Z,5.47
2023-02-14T01:51:40.555Z,5.60
2023-02-14T01:54:10.661Z,5.37
2023-02-14T01:56:42.504Z,5.23
2023-02-14T01:59:13.811Z,5.63
2023-02-14T02:01:46.995Z,4.80
2023-02-14T02:04:18.753Z,5.43
2023-02-14T02:06:50.274Z,4.37
2023-02-14T02:09:22.819Z,4.83
2023-02-14T02:11:51.240Z,4.53
2023-02-14T02:14:21.506Z,4.67
2023-02-14T02:17:12.624Z,4.47
2023-02-14T02:20:18.756Z,4.63
2023-02-14T02:23:16.541Z,4.10
2023-02-14T02:26:08.752Z,4.13
2023-02-14T02:29:14.216Z,3.97
2023-02-14T02:32:08.317Z,4.20
2023-02-14T02:35:15.069Z,3.50
2023-02-14T02:37:55.296Z,4.13
2023-02-14T02:40:33.848Z,4.40
2023-02-14T02:43:19.055Z,4.07
2023-02-14T02:46:10.100Z,4.27
2023-02-14T02:48:44.465Z,4.33
2023-02-14T02:51:36.307Z,4.03
2023-02-14T02:54:10.782Z,4.13
2023-02-14T02:56:47.644Z,3.47
2023-02-14T02:59:20.557Z,4.03
2023-02-14T03:01:59.267Z,4.23
2023-02-14T03:04:46.243Z,4.30
2023-02-14T03:07:32.372Z,3.70
2023-02-14T03:10:03.819Z,3.73
2023-02-14T03:12:50.307Z,4.00
2023-02-14T03:15:27.032Z,3.77
2023-02-14T03:18:03.646Z,3.53
2023-02-14T03:20:40.700Z,3.97
2023-02-14T03:23:15.866Z,4.10
2023-02-14T03:25:56.389Z,6.53
2023-02-14T03:28:31.884Z,6.83
2023-02-14T03:31:05.562Z,5.20
2023-02-14T03:33:38.996Z,5.50
2023-02-14T03:36:11.784Z,4.10
2023-02-14T03:38:46.063Z,3.77
2023-02-14T03:41:21.280Z,3.80
2023-02-14T03:43:53.493Z,4.40
2023-02-14T03:46:26.423Z,3.73
2023-02-14T03:48:57.186Z,3.80
2023-02-14T03:51:27.180Z,3.70
2023-02-14T03:53:58.977Z,4.17
2023-02-14T03:56:34.938Z,4.00
2023-02-14T03:59:08.152Z,3.70
2023-02-14T04:01:40.306Z,4.03
2023-02-14T04:04:09.755Z,4.00
2023-02-14T04:06:37.906Z,4.07
2023-02-14T04:09:05.908Z,7.67
2023-02-14T04:11:35.723Z,5.70
2023-02-14T04:14:04.013Z,5.30
2023-02-14T04:16:53.845Z,4.87
2023-02-14T04:19:24.013Z,4.97
2023-02-14T04:21:52.687Z,4.70
2023-02-14T04:24:21.569Z,4.50
2023-02-14T04:27:12.222Z,4.00
2023-02-14T04:29:43.829Z,4.00
2023-02-14T04:32:14.317Z,4.10
2023-02-14T04:34:42.767Z,3.77
2023-02-14T04:37:11.138Z,3.77
2023-02-14T04:39:39.354Z,4.10
2023-02-14T04:42:09.504Z,3.90
2023-02-14T04:44:38.214Z,4.00
2023-02-14T04:47:07.421Z,4.30
2023-02-14T04:49:36.333Z,4.37
2023-02-14T04:52:05.157Z,4.63
2023-02-14T04:54:33.179Z,4.27
2023-02-14T04:57:01.352Z,4.37
2023-02-14T04:59:30.703Z,4.10
2023-02-14T05:01:59.082Z,3.57
2023-02-14T05:04:27.200Z,4.30
2023-02-14T05:06:55.357Z,4.43
2023-02-14T05:09:23.381Z,4.47
2023-02-14T05:11:51.279Z,4.33
2023-02-14T05:14:19.314Z,4.23
2023-02-14T05:16:48.635Z,4.40
2023-02-14T05:19:16.621Z,3.93
2023-02-14T05:21:44.540Z,4.23
2023-02-14T05:24:12.408Z,4.30
2023-02-14T05:26:41.319Z,4.53
2023-02-14T05:29:09.422Z,4.50
2023-02-14T05:31:37.704Z,4.73
2023-02-14T05:34:07.005Z,4.80
2023-02-14T05:36:35.471Z,4.47
2023-02-14T05:39:03.359Z,4.70
2023-02-14T05:41:31.601Z,4.70
2023-02-14T05:43:59.476Z,5.03
2023-02-14T05:46:27.628Z,4.73
2023-02-14T05:48:55.530Z,4.67
2023-02-14T05:51:24.904Z,4.47
2023-02-14T05:53:52.847Z,4.90
2023-02-14T05:56:20.889Z,4.37
2023-02-14T05:58:48.823Z,4.50
2023-02-14T06:01:16.743Z,4.70
2023-02-14T06:03:44.916Z,4.27
2023-02-14T06:06:12.809Z,4.47
2023-02-14T06:08:42.147Z,4.50
2023-02-14T06:11:10.078Z,5.37
2023-02-14T06:13:38.079Z,6.03
2023-02-14T06:16:06.476Z,5.20
2023-02-14T06:18:34.564Z,5.40
2023-02-14T06:21:02.732Z,5.07
2023-02-14T06:23:30.806Z,4.90
2023-02-14T06:26:00.153Z,4.97
2023-02-14T06:28:28.290Z,4.70
2023-02-14T06:30:56.218Z,4.83
2023-02-14T06:33:24.113Z,5.23
2023-02-14T06:35:54.051Z,5.03
2023-02-14T06:38:22.052Z,4.97
2023-02-14T06:40:49.902Z,5.43
2023-02-14T06:43:19.518Z,4.40
2023-02-14T06:45:48.021Z,4.63
2023-02-14T06:48:16.171Z,4.90
2023-02-14T06:50:44.147Z,4.87
2023-02-14T06:53:12.012Z,4.80
2023-02-14T06:55:40.515Z,5.53
2023-02-14T06:58:09.589Z,4.60
2023-02-14T07:00:39.604Z,5.70
2023-02-14T07:03:08.172Z,5.10
2023-02-14T07:05:36.822Z,5.50
2023-02-14T07:08:05.142Z,5.30
2023-02-14T07:10:33.951Z,5.20
2023-02-14T07:13:02.280Z,4.60
2023-02-14T07:15:30.341Z,5.30
2023-02-14T07:17:59.748Z,5.30
2023-02-14T07:20:29.095Z,5.40
2023-02-14T07:22:57.212Z,6.00
2023-02-14T07:25:25.079Z,5.23
2023-02-14T07:27:53.427Z,4.87
2023-02-14T07:30:21.787Z,5.07
2023-02-14T07:32:49.705Z,5.70
2023-02-14T07:35:19.519Z,5.50
2023-02-14T07:37:47.808Z,5.60
2023-02-14T07:40:15.701Z,5.57
2023-02-14T07:42:43.800Z,6.77
2023-02-14T07:45:27.128Z,8.07
2023-02-14T07:47:56.268Z,7.37
2023-02-14T07:50:25.588Z,8.23
2023-02-14T07:52:53.585Z,10.00
2023-02-14T07:55:22.860Z,9.33
2023-02-14T07:57:50.852Z,9.13
2023-02-14T08:00:20.096Z,9.33
2023-02-14T08:02:49.370Z,7.47
2023-02-14T08:05:18.371Z,7.17
2023-02-14T08:07:47.679Z,7.90
2023-02-14T08:10:16.244Z,8.03
2023-02-14T08:13:03.456Z,7.77
2023-02-14T08:15:50.882Z,6.77
2023-02-14T08:18:19.858Z,6.50
2023-02-14T08:20:48.858Z,5.83
2023-02-14T08:23:18.838Z,8.03
2023-02-14T08:25:48.615Z,7.27
2023-02-14T08:28:17.031Z,7.37
2023-02-14T08:30:45.655Z,6.70
2023-02-14T08:33:13.652Z,6.37
2023-02-14T08:35:41.729Z,6.40
2023-02-14T08:38:10.142Z,6.47
2023-02-14T08:40:39.618Z,6.53
2023-02-14T08:43:08.434Z,6.47
2023-02-14T08:45:37.359Z,7.00
2023-02-14T08:48:07.336Z,8.10
2023-02-14T08:50:35.994Z,8.10
2023-02-14T08:53:08.422Z,8.03
2023-02-14T08:55:37.316Z,8.53
2023-02-14T08:58:07.654Z,9.00
2023-02-14T09:00:35.761Z,8.90
2023-02-14T09:03:03.979Z,8.23
2023-02-14T09:05:32.348Z,8.67
2023-02-14T09:08:00.258Z,8.47
2023-02-14T09:10:28.684Z,7.43
2023-02-14T09:12:56.571Z,8.90
2023-02-14T09:15:25.934Z,9.00
2023-02-14T09:17:53.884Z,7.60
2023-02-14T09:20:22.607Z,8.83
2023-02-14T09:22:50.590Z,7.87
2023-02-14T09:25:18.838Z,8.50
2023-02-14T09:27:46.705Z,8.83
2023-02-14T09:30:15.916Z,9.23
2023-02-14T09:32:45.260Z,8.73
2023-02-14T09:35:19.329Z,9.03
2023-02-14T09:37:52.888Z,9.20
2023-02-14T09:40:22.035Z,9.70
2023-02-14T09:42:56.180Z,9.77
2023-02-14T09:45:27.578Z,8.75
2023-02-14T09:48:02.214Z,10.07
2023-02-14T09:50:34.707Z,9.52
2023-02-14T09:53:07.325Z,8.88
2023-02-14T09:55:41.125Z,9.13
2023-02-14T09:58:17.472Z,9.20
2023-02-14T10:00:49.997Z,9.20
2023-02-14T10:03:37.265Z,8.38
2023-02-14T10:06:13.585Z,8.50
2023-02-14T10:08:53.972Z,8.25
2023-02-14T10:11:24.827Z,9.00
2023-02-14T10:13:57.615Z,8.05
2023-02-14T10:16:31.502Z,8.25
2023-02-14T10:19:03.877Z,7.68
2023-02-14T10:21:35.916Z,7.13
2023-02-14T10:24:12.595Z,7.30
2023-02-14T10:26:41.850Z,6.75
2023-02-14T10:29:15.621Z,7.82
2023-02-14T10:31:55.561Z,7.20
2023-02-14T10:34:31.933Z,6.60
2023-02-14T10:37:26.306Z,6.97
2023-02-14T10:40:19.908Z,6.60
2023-02-14T10:42:55.685Z,6.65
2023-02-14T10:45:34.304Z,6.45
2023-02-14T10:48:10.308Z,6.18
2023-02-14T10:50:47.873Z,5.97
2023-02-14T10:53:23.962Z,11.07
2023-02-14T10:55:56.967Z,13.48
2023-02-14T10:58:27.871Z,11.02
2023-02-14T11:01:01.416Z,7.10
2023-02-14T11:03:31.053Z,6.40
2023-02-14T11:06:00.337Z,5.65
2023-02-14T11:08:29.984Z,5.97
2023-02-14T11:11:09.012Z,5.75
2023-02-14T11:13:39.285Z,5.68
2023-02-14T11:16:11.062Z,5.30
2023-02-14T11:18:40.795Z,5.68
2023-02-14T11:21:13.638Z,4.97
2023-02-14T11:23:43.718Z,4.75
2023-02-14T11:26:23.952Z,5.07
2023-02-14T11:28:57.134Z,4.88
2023-02-14T11:31:33.678Z,5.90
2023-02-14T11:34:05.011Z,6.70
2023-02-14T11:36:42.289Z,5.90
2023-02-14T11:39:25.385Z,4.82
2023-02-14T11:41:56.566Z,5.60
2023-02-14T11:44:26.948Z,6.60
2023-02-14T11:46:56.809Z,4.72
2023-02-14T11:49:31.502Z,5.53
2023-02-14T11:52:10.327Z,5.15
2023-02-14T11:54:41.531Z,4.93
2023-02-14T11:57:14.528Z,5.40
2023-02-14T11:59:45.053Z,4.50
2023-02-14T12:02:24.345Z,4.60
2023-02-14T12:04:56.635Z,4.32
2023-02-14T12:07:29.694Z,4.60
2023-02-14T12:10:26.902Z,3.78
2023-02-14T12:13:01.754Z,3.65
2023-02-14T12:15:37.929Z,3.42
2023-02-14T12:18:47.944Z,3.78
2023-02-14T12:21:28.642Z,3.83
2023-02-14T12:24:05.446Z,3.58
2023-02-14T12:26:37.344Z,3.95
2023-02-14T12:29:14.805Z,3.58
2023-02-14T12:31:43.964Z,3.65
2023-02-14T12:34:14.801Z,3.58
2023-02-14T12:36:56.267Z,3.80
2023-02-14T12:39:34.451Z,3.38
2023-02-14T12:42:13.658Z,3.42
2023-02-14T12:44:52.984Z,3.70
2023-02-14T12:47:37.682Z,3.03
2023-02-14T12:50:34.752Z,4.32
2023-02-14T12:53:32.845Z,3.45
2023-02-14T12:56:10.843Z,3.38
2023-02-14T12:58:47.464Z,3.22
2023-02-14T13:01:41.682Z,3.20
2023-02-14T13:04:49.290Z,2.95
2023-02-14T13:07:25.562Z,3.55
2023-02-14T13:10:00.718Z,3.58
2023-02-14T13:12:37.225Z,3.63
2023-02-14T13:15:16.556Z,3.65
2023-02-14T13:17:49.726Z,3.78
2023-02-14T13:20:35.424Z,3.90
2023-02-14T13:23:06.404Z,3.67
2023-02-14T13:25:41.721Z,3.85
2023-02-14T13:28:15.227Z,3.58
2023-02-14T13:30:43.287Z,4.07
2023-02-14T13:33:28.338Z,3.58
2023-02-14T13:36:00.529Z,3.75
2023-02-14T13:38:31.699Z,4.07
2023-02-14T13:41:03.574Z,4.60
2023-02-14T13:43:56.256Z,4.50
2023-02-14T13:46:55.202Z,4.43
2023-02-14T13:49:32.823Z,4.93
2023-02-14T13:52:03.633Z,5.07
2023-02-14T13:54:35.681Z,5.15
2023-02-14T13:57:24.199Z,4.30
2023-02-14T14:00:37.694Z,3.92
2023-02-14T14:03:08.994Z,3.42
2023-02-14T14:05:59.461Z,4.38
2023-02-14T14:08:46.641Z,3.88
2023-02-14T14:12:00.781Z,4.03
2023-02-14T14:14:37.822Z,3.97
2023-02-14T14:17:25.945Z,4.00
2023-02-14T14:19:54.456Z,4.28
2023-02-14T14:22:22.897Z,4.18
2023-02-14T14:25:11.481Z,3.88
2023-02-14T14:27:45.129Z,4.07
2023-02-14T14:30:23.545Z,4.40
2023-02-14T14:32:51.919Z,4.28
2023-02-14T14:35:22.543Z,3.80
2023-02-14T14:37:52.979Z,4.40
2023-02-14T14:40:25.987Z,4.35
2023-02-14T14:42:55.133Z,3.67
2023-02-14T14:45:26.939Z,3.85
2023-02-14T14:47:59.364Z,4.13
2023-02-14T14:50:29.555Z,4.22
2023-02-14T14:53:01.913Z,3.92
2023-02-14T14:55:34.434Z,3.83
2023-02-14T14:58:04.212Z,4.55
2023-02-14T15:00:35.554Z,4.57
2023-02-14T15:03:07.027Z,5.18
2023-02-14T15:05:37.550Z,5.18
2023-02-14T15:08:21.791Z,4.80
2023-02-14T15:10:54.243Z,3.80
2023-02-14T15:13:48.851Z,3.37
2023-02-14T15:16:23.328Z,3.90
2023-02-14T15:18:54.115Z,4.13
2023-02-14T15:21:22.154Z,4.07
2023-02-14T15:23:50.363Z,4.50
2023-02-14T15:26:24.430Z,4.83
2023-02-14T15:28:57.947Z,6.10
2023-02-14T15:31:31.118Z,5.40
2023-02-14T15:34:01.423Z,5.00
2023-02-14T15:36:30.047Z,4.80
2023-02-14T15:38:59.629Z,3.90
2023-02-14T15:41:28.239Z,4.03
2023-02-14T15:43:58.051Z,3.80
2023-02-14T15:46:35.194Z,3.27
2023-02-14T15:49:10.382Z,3.40
2023-02-14T15:51:39.551Z,3.83
2023-02-14T15:54:09.274Z,3.27
2023-02-14T15:56:42.878Z,4.00
2023-02-14T15:59:18.438Z,3.80
2023-02-14T16:01:54.486Z,3.87
2023-02-14T16:04:28.399Z,3.90
2023-02-14T16:07:15.916Z,3.43
2023-02-14T16:09:44.079Z,3.90
2023-02-14T16:12:31.048Z,4.47
2023-02-14T16:15:10.487Z,3.93
2023-02-14T16:17:41.938Z,3.70
2023-02-14T16:20:26.947Z,3.87
2023-02-14T16:23:14.737Z,4.20
2023-02-14T16:25:42.908Z,3.53
2023-02-14T16:28:10.928Z,4.10
2023-02-14T16:30:40.690Z,4.07
2023-02-14T16:33:16.983Z,4.10
2023-02-14T16:35:45.908Z,3.80
2023-02-14T16:38:16.361Z,4.40
2023-02-14T16:40:47.876Z,4.80
2023-02-14T16:43:17.528Z,5.07
2023-02-14T16:45:46.043Z,4.70
2023-02-14T16:48:16.321Z,4.67
2023-02-14T16:50:45.409Z,4.97
2023-02-14T16:53:22.885Z,4.30
2023-02-14T16:55:52.899Z,4.63
2023-02-14T16:58:21.719Z,4.50
2023-02-14T17:00:49.575Z,5.20
2023-02-14T17:03:19.263Z,4.97
2023-02-14T17:05:47.422Z,4.53
2023-02-14T17:08:16.329Z,5.10
2023-02-14T17:10:47.555Z,4.93
2023-02-14T17:13:19.945Z,4.33
2023-02-14T17:15:48.381Z,4.90
2023-02-14T17:18:19.027Z,4.53
2023-02-14T17:20:47.222Z,4.17
2023-02-14T17:23:15.666Z,5.17
2023-02-14T17:25:43.483Z,4.93
2023-02-14T17:28:11.922Z,4.87
2023-02-14T17:30:40.426Z,4.63
2023-02-14T17:33:08.476Z,4.47
2023-02-14T17:35:38.109Z,4.57
2023-02-14T17:38:06.148Z,5.07
2023-02-14T17:40:34.265Z,4.70
2023-02-14T17:43:02.470Z,5.00
2023-02-14T17:45:30.598Z,4.60
2023-02-14T17:47:58.555Z,4.87
2023-02-14T17:50:26.572Z,4.63
2023-02-14T17:52:56.698Z,4.93
2023-02-14T17:55:25.178Z,4.80
2023-02-14T17:57:53.355Z,4.50
2023-02-14T18:00:22.263Z,5.17
2023-02-14T18:02:50.512Z,5.00
2023-02-14T18:05:19.165Z,4.73
2023-02-14T18:07:47.550Z,4.63
2023-02-14T18:10:16.906Z,5.23
2023-02-14T18:12:45.002Z,4.87
2023-02-14T18:15:12.855Z,5.00
2023-02-14T18:17:40.853Z,5.27
2023-02-14T18:20:09.703Z,6.03
2023-02-14T18:22:37.688Z,5.43
2023-02-14T18:25:06.294Z,5.60
2023-02-14T18:27:35.562Z,5.27
2023-02-14T18:30:03.630Z,5.10
2023-02-14T18:32:31.588Z,4.83
2023-02-14T18:34:59.937Z,5.37
2023-02-14T18:37:28.037Z,5.10
2023-02-14T18:39:55.903Z,5.33
2023-02-14T18:42:24.338Z,5.40
2023-02-14T18:44:53.707Z,6.13
2023-02-14T18:47:22.263Z,5.33
2023-02-14T18:49:50.281Z,6.23
2023-02-14T18:52:18.283Z,6.67
2023-02-14T18:54:46.281Z,6.87
2023-02-14T18:57:14.206Z,6.40
2023-02-14T18:59:42.322Z,5.27
2023-02-14T19:02:11.835Z,5.63
2023-02-14T19:04:40.024Z,5.60
2023-02-14T19:07:08.234Z,5.43
2023-02-14T19:09:39.860Z,5.37
2023-02-14T19:12:08.536Z,5.13
2023-02-14T19:14:37.414Z,4.87
2023-02-14T19:17:06.089Z,4.87
2023-02-14T19:19:36.081Z,5.10
2023-02-14T19:22:04.213Z,4.57
2023-02-14T19:24:32.235Z,5.10
2023-02-14T19:27:00.219Z,5.07
2023-02-14T19:29:28.257Z,5.47
2023-02-14T19:31:57.001Z,5.20
2023-02-14T19:34:28.910Z,5.27
2023-02-14T19:37:00.720Z,5.57
2023-02-14T19:39:30.426Z,6.10
2023-02-14T19:42:00.016Z,5.27
2023-02-14T19:44:29.385Z,6.17
2023-02-14T19:46:59.907Z,5.60
2023-02-14T19:49:29.153Z,5.50
2023-02-14T19:51:59.609Z,5.23
2023-02-14T19:54:27.498Z,5.20
2023-02-14T19:56:56.299Z,5.50
2023-02-14T19:59:24.531Z,5.20
2023-02-14T20:01:53.988Z,4.77
2023-02-14T20:04:23.745Z,6.20
2023-02-14T20:06:53.119Z,6.30
2023-02-14T20:09:23.706Z,7.17
2023-02-14T20:11:54.527Z,6.70
2023-02-14T20:14:24.205Z,6.83
2023-02-14T20:16:53.500Z,10.00
2023-02-14T20:19:24.351Z,11.57
2023-02-14T20:21:52.417Z,9.97
2023-02-14T20:24:23.395Z,7.33
2023-02-14T20:26:52.505Z,6.20
2023-02-14T20:29:22.197Z,6.27
2023-02-14T20:31:52.357Z,5.80
2023-02-14T20:34:21.435Z,5.87
2023-02-14T20:36:53.086Z,5.80
2023-02-14T20:39:24.027Z,5.23
2023-02-14T20:41:53.131Z,5.53
2023-02-14T20:44:21.855Z,6.77
2023-02-14T20:46:51.450Z,6.70
2023-02-14T20:49:20.391Z,7.47
2023-02-14T20:51:50.064Z,8.73
2023-02-14T20:54:18.558Z,11.73
2023-02-14T20:56:48.602Z,13.53
2023-02-14T20:59:16.542Z,12.40
2023-02-14T21:01:44.963Z,9.57
2023-02-14T21:04:13.924Z,8.93
2023-02-14T21:06:42.121Z,7.87
2023-02-14T21:09:10.310Z,7.00
2023-02-14T21:11:38.252Z,6.53
2023-02-14T21:14:07.534Z,6.63
2023-02-14T21:16:35.468Z,6.40
2023-02-14T21:19:04.651Z,8.40
2023-02-14T21:21:36.466Z,8.03
2023-02-14T21:24:06.263Z,9.13
2023-02-14T21:26:34.501Z,8.83
2023-02-14T21:29:02.493Z,7.37
2023-02-14T21:31:32.753Z,8.27
2023-02-14T21:34:02.720Z,7.60
2023-02-14T21:36:32.685Z,7.43
2023-02-14T21:39:01.119Z,7.20
2023-02-14T21:41:33.400Z,6.27
2023-02-14T21:44:03.348Z,6.13
2023-02-14T21:46:33.816Z,6.23
2023-02-14T21:49:21.826Z,7.10
2023-02-14T21:51:50.263Z,7.07
2023-02-14T21:54:18.497Z,6.57
2023-02-14T21:56:46.578Z,6.93
2023-02-14T21:59:14.730Z,6.73
2023-02-14T22:01:44.328Z,6.97
2023-02-14T22:04:13.679Z,6.80
2023-02-14T22:06:43.101Z,7.23
2023-02-14T22:09:13.275Z,6.53
2023-02-14T22:11:41.273Z,6.37
2023-02-14T22:14:09.656Z,7.03
2023-02-14T22:16:38.204Z,6.90
2023-02-14T22:19:09.298Z,7.17
2023-02-14T22:21:37.335Z,6.90
2023-02-14T22:24:05.941Z,6.37
2023-02-14T22:26:35.538Z,6.93
2023-02-14T22:29:04.066Z,6.50
2023-02-14T22:31:36.455Z,6.10
2023-02-14T22:34:05.040Z,6.13
2023-02-14T22:36:34.587Z,6.67
2023-02-14T22:39:02.890Z,6.37
2023-02-14T22:41:30.857Z,6.73
2023-02-14T22:43:58.957Z,7.13
2023-02-14T22:46:29.064Z,6.80
2023-02-14T22:48:58.165Z,7.03
2023-02-14T22:51:28.663Z,7.17
2023-02-14T22:53:59.655Z,7.80
2023-02-14T22:56:30.972Z,7.03
2023-02-14T22:59:00.814Z,7.33
2023-02-14T23:01:28.823Z,7.33
2023-02-14T23:03:58.159Z,6.83
2023-02-14T23:06:27.347Z,7.10
2023-02-14T23:08:57.928Z,7.90
2023-02-14T23:11:28.323Z,7.17
2023-02-14T23:14:14.328Z,7.10
2023-02-14T23:17:00.530Z,7.53
2023-02-14T23:19:47.916Z,7.13
2023-02-14T23:22:19.585Z,6.37
2023-02-14T23:24:50.118Z,6.33
2023-02-14T23:27:20.199Z,6.93
2023-02-14T23:29:48.270Z,7.17
2023-02-14T23:32:16.746Z,6.90
2023-02-14T23:34:45.742Z,7.17
2023-02-14T23:37:14.696Z,7.67
2023-02-14T23:39:42.972Z,9.00
2023-02-14T23:42:14.585Z,9.17
2023-02-14T23:44:44.185Z,8.80
2023-02-14T23:47:13.938Z,8.43
2023-02-14T23:49:42.771Z,7.33
2023-02-14T23:52:12.479Z,7.03
2023-02-14T23:54:40.435Z,7.50
2023-02-14T23:57:09.688Z,7.83
2023-02-14T23:59:39.432Z,7.40
